Time;durP1;ratioP1;P1;durP2;ratioP2;P2;SDS_P1;SDS_P2;PMS_P1;PMS_P2;Temp;Humidity;BMP_temperature;BMP_pressure;BME280_temperature;BME280_humidity;BME280_pressure;Samples;Min_cycle;Max_cycle;Signal;HPM_P1;HPM_P2
2022/10/17 00:01:44;;;;;;;1.27;1.17;;;;;;;11.65;82.61;100807.91;4845648;29;20046;-65
2022/10/17 00:04:12;;;;;;;1.17;1.07;;;;;;;11.64;82.35;100818.09;4845584;29;20046;-66
2022/10/17 00:06:41;;;;;;;2.30;1.70;;;;;;;11.63;82.56;100812.16;4846159;29;20050;-65
2022/10/17 00:09:11;;;;;;;3.07;1.57;;;;;;;11.62;82.38;100807.88;4845784;29;20038;-65
2022/10/17 00:11:40;;;;;;;1.77;1.48;;;;;;;11.58;82.51;100806.13;4845269;29;20054;-65
2022/10/17 00:14:09;;;;;;;0.68;0.68;;;;;;;11.55;82.54;100802.66;4845459;29;20137;-66
2022/10/17 00:16:37;;;;;;;0.82;0.80;;;;;;;11.51;82.89;100801.75;4845618;29;20045;-65
2022/10/17 00:19:06;;;;;;;0.77;0.77;;;;;;;11.52;82.47;100803.47;4845278;29;20053;-65
2022/10/17 00:21:35;;;;;;;1.40;1.13;;;;;;;11.53;82.61;100794.97;4845910;29;20062;-65
2022/10/17 00:24:04;;;;;;;0.85;0.82;;;;;;;11.49;82.69;100803.44;4844286;29;20056;-65
2022/10/17 00:26:34;;;;;;;1.27;1.17;;;;;;;11.46;82.51;100808.50;4845530;29;20049;-66
2022/10/17 00:29:03;;;;;;;0.57;0.57;;;;;;;11.47;82.68;100807.66;4845500;29;20122;-65
2022/10/17 00:31:32;;;;;;;2.90;1.95;;;;;;;11.45;82.59;100796.56;4844487;29;20056;-65
2022/10/17 00:34:01;;;;;;;1.30;1.20;;;;;;;11.42;82.79;100793.97;4845042;29;20050;-66
2022/10/17 00:36:30;;;;;;;1.75;1.48;;;;;;;11.42;82.74;100807.59;4844131;29;20085;-65
2022/10/17 00:38:59;;;;;;;2.60;2.38;;;;;;;11.39;82.67;100811.81;4845270;29;20393;-66
2022/10/17 00:41:31;;;;;;;1.58;1.48;;;;;;;11.37;82.78;100808.38;4845048;29;20044;-65
2022/10/17 00:44:03;;;;;;;2.08;1.15;;;;;;;11.37;82.94;100805.84;4845182;29;20138;-65
2022/10/17 00:46:36;;;;;;;0.60;0.60;;;;;;;11.37;82.92;100804.13;4844187;29;20089;-65
2022/10/17 00:49:07;;;;;;;2.58;2.20;;;;;;;11.37;82.59;100804.13;4844801;29;20058;-65
2022/10/17 00:51:43;;;;;;;2.25;1.77;;;;;;;11.34;82.68;100800.66;4844759;29;20082;-65
2022/10/17 00:54:15;;;;;;;4.97;1.48;;;;;;;11.33;82.90;100802.38;4844639;29;20054;-65
2022/10/17 00:56:44;;;;;;;0.80;0.80;;;;;;;11.34;82.71;100803.22;4844643;29;20501;-66
2022/10/17 00:59:16;;;;;;;2.08;1.23;;;;;;;11.35;82.97;100802.38;4844596;29;20064;-65
2022/10/17 01:01:51;;;;;;;1.33;1.05;;;;;;;11.34;82.82;100803.22;4844815;29;20046;-65
2022/10/17 01:04:20;;;;;;;5.80;1.30;;;;;;;11.31;82.72;100798.94;4844829;29;20076;-65
2022/10/17 01:06:48;;;;;;;2.17;1.57;;;;;;;11.27;82.71;100797.19;4843653;29;20137;-65
2022/10/17 01:09:17;;;;;;;2.05;0.82;;;;;;;11.26;82.92;100799.69;4844456;29;20107;-65
2022/10/17 01:11:53;;;;;;;2.27;1.83;;;;;;;11.26;82.74;100804.81;4844122;29;20500;-66
2022/10/17 01:14:33;;;;;;;0.75;0.75;;;;;;;11.25;82.84;100803.94;4844615;29;20132;-66
2022/10/17 01:17:11;;;;;;;1.23;1.10;;;;;;;11.26;82.97;100804.81;4843225;29;20054;-66
2022/10/17 01:20:02;;;;;;;1.10;1.02;;;;;;;11.25;82.94;100803.09;4843149;29;20061;-66
2022/10/17 01:22:38;;;;;;;1.60;1.48;;;;;;;11.25;83.06;100808.22;4844462;29;20408;-66
2022/10/17 01:25:24;;;;;;;1.70;1.60;;;;;;;11.28;82.77;100804.00;4844116;29;20496;-66
2022/10/17 01:28:10;;;;;;;16.95;4.00;;;;;;;11.27;82.81;100811.66;4827771;29;20412;-65
2022/10/17 01:31:03;;;;;;;0.68;0.68;;;;;;;11.27;82.85;100811.66;4843228;29;20069;-66
2022/10/17 01:33:42;;;;;;;1.77;1.60;;;;;;;11.24;82.68;100806.47;4843105;29;20046;-66
2022/10/17 01:36:17;;;;;;;3.00;0.75;;;;;;;11.22;82.70;100816.69;4843103;29;20054;-65
2022/10/17 01:38:49;;;;;;;0.98;0.88;;;;;;;11.22;82.92;100814.13;4842996;29;20061;-65
2022/10/17 01:41:31;;;;;;;2.00;1.60;;;;;;;11.18;82.90;100806.41;4842622;29;20060;-65
2022/10/17 01:44:08;;;;;;;0.57;0.57;;;;;;;11.16;83.03;100813.16;4842976;29;20468;-65
2022/10/17 01:46:40;;;;;;;1.15;1.02;;;;;;;11.13;82.74;100808.88;4843962;29;20451;-65
2022/10/17 01:49:14;;;;;;;1.70;1.60;;;;;;;11.11;82.93;100809.72;4843772;29;20132;-65
2022/10/17 01:51:48;;;;;;;2.88;2.25;;;;;;;11.09;82.74;100808.81;4844018;29;20453;-65
2022/10/17 01:54:22;;;;;;;0.43;0.43;;;;;;;11.11;82.92;100809.72;4844503;29;20504;-65
2022/10/17 01:56:55;;;;;;;6.88;1.50;;;;;;;11.07;83.00;100798.56;4843023;29;20050;-65
2022/10/17 01:59:29;;;;;;;1.55;1.35;;;;;;;11.04;82.94;100793.41;4842621;29;20145;-66
2022/10/17 02:02:01;;;;;;;1.63;1.52;;;;;;;10.98;82.95;100787.34;4842602;29;20042;-65
2022/10/17 02:04:30;;;;;;;0.80;0.80;;;;;;;11.06;83.09;100801.94;4842379;29;20054;-65
2022/10/17 02:07:06;;;;;;;2.45;1.35;;;;;;;11.06;83.10;100801.94;4842209;29;20046;-66
2022/10/17 02:09:36;;;;;;;2.17;1.33;;;;;;;11.08;82.97;100804.53;4843697;29;20144;-64
2022/10/17 02:12:22;;;;;;;0.98;0.90;;;;;;;11.07;83.05;100810.47;4842234;29;20134;-65
2022/10/17 02:15:18;;;;;;;2.47;1.67;;;;;;;11.03;83.13;100806.16;4843359;29;20062;-65
2022/10/17 02:18:02;;;;;;;1.70;1.27;;;;;;;11.01;83.06;100801.03;4843159;29;20050;-65
2022/10/17 02:20:39;;;;;;;12.30;2.58;;;;;;;11.02;83.05;100799.31;4842412;29;20053;-66
2022/10/17 02:23:14;;;;;;;0.47;0.47;;;;;;;10.98;83.11;100801.00;4842156;29;20052;-65
2022/10/17 02:25:48;;;;;;;1.17;1.08;;;;;;;10.97;83.01;100806.06;4843376;29;20408;-65
2022/10/17 02:28:21;;;;;;;1.33;1.05;;;;;;;10.96;82.86;100804.34;4843156;29;20050;-65
2022/10/17 02:30:54;;;;;;;0.80;0.80;;;;;;;10.97;82.88;100806.06;4842232;29;20140;-65
2022/10/17 02:33:29;;;;;;;1.10;1.00;;;;;;;10.92;83.05;100807.69;4841965;29;20058;-65
2022/10/17 02:36:03;;;;;;;0.95;0.82;;;;;;;10.92;83.00;100808.53;4843315;29;20049;-65
2022/10/17 02:38:34;;;;;;;1.60;1.50;;;;;;;10.97;83.00;100808.59;4842161;29;20053;-66
2022/10/17 02:41:06;;;;;;;1.70;1.23;;;;;;;10.93;82.88;100800.06;4841877;29;20149;-65
2022/10/17 02:43:37;;;;;;;0.63;0.63;;;;;;;10.86;82.85;100795.69;4842050;29;20114;-66
2022/10/17 02:46:07;;;;;;;6.32;1.38;;;;;;;10.86;83.11;100802.47;4842919;29;20069;-65
2022/10/17 02:48:42;;;;;;;2.05;1.95;;;;;;;10.84;83.00;100806.72;4843145;29;20104;-65
2022/10/17 02:51:18;;;;;;;10.23;1.23;;;;;;;10.81;83.27;100804.09;4843161;29;20054;-66
2022/10/17 02:53:52;;;;;;;3.88;2.40;;;;;;;10.81;83.15;100804.09;4842378;29;20102;-65
2022/10/17 02:56:21;;;;;;;1.20;1.10;;;;;;;10.77;83.35;100809.16;4843144;29;20458;-65
2022/10/17 02:58:54;;;;;;;2.60;1.80;;;;;;;10.60;83.26;100785.06;4843025;29;20077;-65
2022/10/17 03:01:24;;;;;;;2.05;1.30;;;;;;;10.72;83.21;100818.41;4841882;29;20493;-66
2022/10/17 03:04:07;;;;;;;0.63;0.63;;;;;;;10.70;83.39;100817.53;4841557;29;20094;-66
2022/10/17 03:06:36;;;;;;;0.55;0.55;;;;;;;10.70;83.48;100817.53;4842919;29;20054;-66
2022/10/17 03:09:04;;;;;;;7.67;1.67;;;;;;;10.67;83.65;100825.16;4826583;29;20046;-66
2022/10/17 03:11:33;;;;;;;3.97;2.97;;;;;;;10.66;83.53;100828.53;4842066;29;20070;-65
2022/10/17 03:14:02;;;;;;;5.00;3.20;;;;;;;10.65;83.42;100839.59;4841838;29;20133;-66
2022/10/17 03:16:32;;;;;;;3.88;2.97;;;;;;;10.66;83.38;100831.09;4843224;29;20077;-65
2022/10/17 03:19:01;;;;;;;1.92;1.25;;;;;;;10.67;83.67;100837.94;4841403;29;20042;-66
2022/10/17 03:21:31;;;;;;;3.58;1.65;;;;;;;10.69;83.97;100836.25;4841701;29;20513;-66
2022/10/17 03:24:00;;;;;;;1.75;1.58;;;;;;;10.70;83.51;100830.31;4841492;29;20129;-66
2022/10/17 03:26:29;;;;;;;0.82;0.82;;;;;;;10.69;83.40;100831.16;4841594;29;20508;-66
2022/10/17 03:28:59;;;;;;;1.23;0.90;;;;;;;10.71;83.52;100839.69;4842765;29;20049;-65
2022/10/17 03:31:33;;;;;;;2.53;2.33;;;;;;;10.71;83.48;100834.59;4841882;29;20466;-65
2022/10/17 03:34:03;;;;;;;2.30;1.33;;;;;;;10.67;83.94;100848.16;4842524;29;20102;-65
2022/10/17 03:36:33;;;;;;;1.98;1.75;;;;;;;10.69;83.82;100840.50;4841360;29;20053;-65
2022/10/17 03:39:02;;;;;;;2.25;1.67;;;;;;;10.71;83.86;100843.94;4841568;29;20057;-65
2022/10/17 03:41:31;;;;;;;3.58;2.22;;;;;;;10.72;83.62;100851.63;4842970;29;20054;-65
2022/10/17 03:44:00;;;;;;;0.52;0.52;;;;;;;10.72;83.91;100851.63;4841504;29;20132;-65
2022/10/17 03:46:29;;;;;;;2.05;1.85;;;;;;;10.70;83.65;100853.28;4841212;29;20050;-65
2022/10/17 03:49:01;;;;;;;1.70;1.45;;;;;;;10.73;84.02;100857.59;4842615;29;20058;-65
2022/10/17 03:51:30;;;;;;;1.48;1.38;;;;;;;10.74;83.48;100867.84;4842599;29;20053;-66
2022/10/17 03:54:07;;;;;;;1.70;1.55;;;;;;;10.66;83.45;100858.31;4842612;29;20061;-65
2022/10/17 03:56:36;;;;;;;1.48;1.38;;;;;;;10.72;83.73;100874.59;4842385;29;20054;-65
2022/10/17 03:59:12;;;;;;;3.80;2.03;;;;;;;10.71;83.57;100878.00;4841106;29;20141;-65
2022/10/17 04:01:43;;;;;;;2.30;1.45;;;;;;;10.69;83.69;100877.13;4841686;29;20458;-65
2022/10/17 04:04:13;;;;;;;1.92;1.30;;;;;;;10.72;83.68;100882.25;4842504;29;20077;-65
2022/10/17 04:06:42;;;;;;;2.05;1.58;;;;;;;10.72;83.95;100887.38;4843027;29;20042;-65
2022/10/17 04:09:13;;;;;;;1.13;0.88;;;;;;;10.74;83.87;100890.84;4845437;29;20103;-65
2022/10/17 04:11:49;;;;;;;18.55;3.15;;;;;;;10.75;83.88;100892.53;4844046;29;20144;-64
2022/10/17 04:14:18;;;;;;;1.95;1.67;;;;;;;10.76;83.59;100889.16;4844651;29;20052;-65
2022/10/17 04:16:47;;;;;;;1.05;0.60;;;;;;;10.71;83.31;100893.31;4829152;29;20061;-65
2022/10/17 04:19:20;;;;;;;1.38;1.27;;;;;;;10.72;83.56;100889.91;4845297;29;20064;-66
2022/10/17 04:21:50;;;;;;;1.42;1.33;;;;;;;10.72;83.26;100887.38;4845537;29;20062;-65
2022/10/17 04:24:23;;;;;;;1.70;1.58;;;;;;;10.68;83.83;100889.84;4845262;29;20129;-65
2022/10/17 04:27:05;;;;;;;3.42;1.45;;;;;;;10.70;83.61;100894.13;4845484;29;20077;-65
2022/10/17 04:29:37;;;;;;;1.58;1.30;;;;;;;10.68;83.28;100895.81;4845470;29;20421;-65
2022/10/17 04:32:13;;;;;;;1.83;1.60;;;;;;;10.66;83.55;100894.94;4843862;29;20073;-65
2022/10/17 04:34:56;;;;;;;0.73;0.73;;;;;;;10.65;83.27;100897.47;4845076;29;20046;-66
2022/10/17 04:37:24;;;;;;;1.95;1.33;;;;;;;10.63;82.92;100897.41;4844129;29;20157;-65
2022/10/17 04:39:56;;;;;;;2.33;1.70;;;;;;;10.62;83.08;100890.59;4845307;29;20058;-65
2022/10/17 04:42:25;;;;;;;4.13;1.60;;;;;;;10.62;83.38;100898.28;4845146;29;20054;-65
2022/10/17 04:44:54;;;;;;;1.65;1.23;;;;;;;10.61;83.31;100903.31;4843936;29;20054;-65
2022/10/17 04:47:25;;;;;;;1.15;1.05;;;;;;;10.58;83.00;100899.03;4845104;29;20393;-65
2022/10/17 04:49:55;;;;;;;1.50;1.35;;;;;;;10.57;83.12;100889.66;4843636;29;20098;-65
2022/10/17 04:52:24;;;;;;;0.73;0.73;;;;;;;10.58;83.57;100898.19;4843820;29;20050;-65
2022/10/17 04:54:53;;;;;;;;;;;;;;;10.58;83.34;100893.09;4845075;29;20049;-65
2022/10/17 04:57:24;;;;;;;3.15;2.05;;;;;;;10.56;83.41;100895.59;4844602;29;20006;-65
2022/10/17 05:00:09;;;;;;;1.42;1.33;;;;;;;10.55;83.53;100904.09;4845376;29;20058;-65
2022/10/17 05:02:49;;;;;;;1.20;1.10;;;;;;;10.51;83.37;100899.75;4844604;29;20054;-65
2022/10/17 05:05:17;;;;;;;1.20;1.10;;;;;;;10.49;83.53;100909.06;4843309;29;20050;-64
2022/10/17 05:07:49;;;;;;;2.72;1.70;;;;;;;10.46;83.11;100909.00;4844780;29;20054;-65
2022/10/17 05:10:20;;;;;;;1.38;1.27;;;;;;;10.46;83.58;100906.44;4844765;29;20085;-65
2022/10/17 05:12:53;;;;;;;1.45;1.20;;;;;;;10.45;83.79;100907.28;4843224;29;20113;-65
2022/10/17 05:15:26;;;;;;;1.15;1.05;;;;;;;10.46;83.91;100919.22;4844397;29;20049;-65
2022/10/17 05:17:57;;;;;;;1.48;1.15;;;;;;;10.42;83.82;100927.66;4843850;29;20053;-66
2022/10/17 05:20:27;;;;;;;1.60;1.45;;;;;;;10.42;83.63;100925.09;4844399;29;20496;-65
2022/10/17 05:22:58;;;;;;;1.38;1.27;;;;;;;10.43;84.16;100923.41;4843296;29;20535;-62
2022/10/17 05:25:32;;;;;;;1.08;1.08;;;;;;;10.40;83.75;100933.56;4844311;29;20457;-65
2022/10/17 05:28:02;;;;;;;0.95;0.90;;;;;;;10.41;83.81;100931.06;4844322;29;20045;-65
2022/10/17 05:30:31;;;;;;;1.95;1.75;;;;;;;10.41;83.71;100920.84;4842928;29;20074;-63
2022/10/17 05:33:08;;;;;;;13.13;2.33;;;;;;;10.44;84.12;100931.09;4844291;29;20478;-65
2022/10/17 05:35:37;;;;;;;0.93;0.93;;;;;;;10.46;83.51;100937.06;4843139;29;20052;-65
2022/10/17 05:38:06;;;;;;;1.75;1.63;;;;;;;10.49;84.04;100939.69;4843994;29;20052;-65
2022/10/17 05:40:38;;;;;;;1.13;1.05;;;;;;;10.53;83.59;100946.56;4844467;29;20050;-65
2022/10/17 05:43:08;;;;;;;2.47;2.25;;;;;;;10.53;83.49;100945.75;4842672;29;20054;-65
2022/10/17 05:45:37;;;;;;;1.15;1.02;;;;;;;10.59;83.65;100951.81;4842613;29;20042;-65
2022/10/17 05:48:09;;;;;;;0.70;0.70;;;;;;;10.62;83.71;100961.22;4844068;29;20547;-65
2022/10/17 05:50:38;;;;;;;2.28;2.08;;;;;;;10.65;83.49;100967.25;4842877;29;20049;-65
2022/10/17 05:53:14;;;;;;;1.45;1.23;;;;;;;10.72;83.28;100974.19;4842512;29;20057;-65
2022/10/17 05:55:55;;;;;;;1.52;1.35;;;;;;;10.80;83.52;100968.41;4843590;29;20134;-65
2022/10/17 05:58:26;;;;;;;0.57;0.57;;;;;;;10.87;83.52;100973.63;4842491;29;20069;-64
2022/10/17 06:01:27;;;;;;;2.05;1.85;;;;;;;11.01;83.67;100981.56;4843442;29;20054;-64
2022/10/17 06:03:56;;;;;;;0.55;0.55;;;;;;;11.14;83.35;100978.38;4842368;29;20103;-65
2022/10/17 06:06:25;;;;;;;1.70;1.10;;;;;;;11.27;83.21;100988.00;4843485;29;20038;-65
2022/10/17 06:08:54;;;;;;;1.75;1.52;;;;;;;11.42;83.05;100980.59;4842140;29;20038;-65
2022/10/17 06:11:28;;;;;;;11.88;1.13;;;;;;;11.53;82.99;100973.09;4842401;29;20050;-65
2022/10/17 06:13:58;;;;;;;1.15;0.93;;;;;;;11.68;82.70;100989.56;4842050;29;20057;-65
2022/10/17 06:16:30;;;;;;;1.73;1.52;;;;;;;11.82;82.62;100988.09;4843566;29;20078;-65
2022/10/17 06:19:00;;;;;;;3.42;1.08;;;;;;;11.95;82.34;100995.09;4843566;29;20141;-65
2022/10/17 06:21:33;;;;;;;2.55;1.80;;;;;;;12.09;81.94;100988.47;4842214;29;20094;-65
2022/10/17 06:24:09;;;;;;;5.28;2.75;;;;;;;12.23;81.77;101000.63;4843312;29;20107;-65
2022/10/17 06:26:42;;;;;;;4.50;2.40;;;;;;;12.33;81.60;101007.59;4841985;29;20056;-65
2022/10/17 06:29:14;;;;;;;3.45;1.77;;;;;;;12.46;81.38;101001.78;4842676;29;20050;-65
2022/10/17 06:31:47;;;;;;;3.22;2.05;;;;;;;12.57;81.21;101000.22;4843380;29;20523;-66
2022/10/17 06:34:16;;;;;;;0.83;0.80;;;;;;;12.71;80.88;101006.38;4841826;29;20504;-65
2022/10/17 06:36:46;;;;;;;3.22;2.17;;;;;;;12.79;80.44;101009.84;4843022;29;20054;-65
2022/10/17 06:39:15;;;;;;;1.63;1.52;;;;;;;12.83;80.17;101014.19;4843172;29;20401;-65
2022/10/17 06:41:56;;;;;;;1.17;0.93;;;;;;;12.89;80.00;101009.13;4843254;29;20121;-65
2022/10/17 06:44:41;;;;;;;2.50;1.98;;;;;;;13.02;79.60;101013.56;4843375;29;20050;-65
2022/10/17 06:47:20;;;;;;;2.20;1.65;;;;;;;13.20;79.39;101018.91;4843126;29;20053;-65
2022/10/17 06:49:52;;;;;;;2.60;1.40;;;;;;;13.32;79.57;101024.16;4842174;29;20053;-67
2022/10/17 06:52:29;;;;;;;2.40;1.70;;;;;;;13.35;79.42;101025.88;4843133;29;20061;-67
2022/10/17 06:55:21;;;;;;;2.58;1.48;;;;;;;13.42;78.65;101036.22;4837954;29;20124;-66
2022/10/17 06:58:17;;;;;;;1.25;1.15;;;;;;;13.51;78.46;101029.47;4840988;29;20410;-67
2022/10/17 07:01:09;;;;;;;2.20;1.77;;;;;;;13.65;78.73;101033.00;4838230;29;20141;-67
2022/10/17 07:03:39;;;;;;;1.25;1.15;;;;;;;13.73;78.60;101026.22;4855135;29;20523;-65
2022/10/17 07:06:09;;;;;;;2.22;1.50;;;;;;;13.80;78.45;101033.09;4859856;29;20052;-66
2022/10/17 07:08:43;;;;;;;1.10;1.00;;;;;;;13.90;77.85;101040.03;4855138;29;20496;-65
2022/10/17 07:11:16;;;;;;;1.90;1.63;;;;;;;13.94;77.87;101039.25;4858897;29;20515;-67
2022/10/17 07:13:45;;;;;;;1.83;1.67;;;;;;;14.06;77.70;101041.84;4853398;29;20062;-66
2022/10/17 07:16:16;;;;;;;1.45;1.35;;;;;;;14.14;77.90;101040.22;4842747;29;20058;-67
2022/10/17 07:18:51;;;;;;;2.83;1.63;;;;;;;14.24;77.77;101042.00;4841261;29;20144;-67
2022/10/17 07:21:21;;;;;;;2.70;1.95;;;;;;;14.37;77.72;101043.81;4842760;29;20054;-65
2022/10/17 07:23:50;;;;;;;2.20;1.10;;;;;;;14.51;77.61;101047.34;4842857;29;20054;-66
2022/10/17 07:26:19;;;;;;;1.08;0.95;;;;;;;14.64;76.83;101054.25;4841460;29;20042;-65
2022/10/17 07:28:53;;;;;;;1.83;1.60;;;;;;;14.73;76.89;101058.59;4826141;29;20042;-66
2022/10/17 07:31:37;;;;;;;14.68;2.45;;;;;;;14.86;76.28;101057.75;4837493;29;20085;-65
2022/10/17 07:34:06;;;;;;;1.05;1.00;;;;;;;14.91;75.53;101055.22;4822935;29;20077;-64
2022/10/17 07:36:35;;;;;;;0.95;0.90;;;;;;;15.00;75.17;101058.66;4824502;29;20069;-64
2022/10/17 07:39:06;;;;;;;1.48;1.38;;;;;;;15.10;74.87;101059.56;4824121;29;20068;-65
2022/10/17 07:41:36;;;;;;;2.72;2.25;;;;;;;15.16;74.19;101064.75;4825976;29;20054;-65
2022/10/17 07:44:06;;;;;;;1.50;1.30;;;;;;;15.28;74.02;101062.19;4826214;29;20046;-65
2022/10/17 07:46:42;;;;;;;0.93;0.90;;;;;;;15.40;74.11;101059.66;4827062;29;20093;-64
2022/10/17 07:49:11;;;;;;;2.15;1.77;;;;;;;15.50;73.99;101060.56;4837871;29;20054;-65
2022/10/17 07:51:41;;;;;;;1.70;1.33;;;;;;;15.58;73.59;101059.69;4827198;29;20055;-65
2022/10/17 07:54:10;;;;;;;1.58;1.48;;;;;;;15.70;73.58;101059.72;4827076;29;20047;-64
2022/10/17 07:56:38;;;;;;;0.82;0.80;;;;;;;15.84;72.95;101068.28;4826929;29;20054;-66
2022/10/17 07:59:07;;;;;;;0.73;0.73;;;;;;;15.88;72.48;101061.44;4826902;29;20159;-65
2022/10/17 08:01:37;;;;;;;2.78;2.10;;;;;;;15.93;72.00;101062.31;4827181;29;20050;-65
2022/10/17 08:04:07;;;;;;;2.15;0.95;;;;;;;15.97;71.69;101049.41;4826797;29;20138;-65
2022/10/17 08:06:35;;;;;;;1.67;1.58;;;;;;;16.12;71.47;101063.13;4826865;29;20049;-65
2022/10/17 08:09:04;;;;;;;1.95;0.93;;;;;;;16.16;71.30;101057.13;4827068;29;20059;-65
2022/10/17 08:11:34;;;;;;;1.23;1.13;;;;;;;16.28;70.99;101059.66;4825570;29;20097;-65
2022/10/17 08:14:03;;;;;;;2.65;2.05;;;;;;;16.36;70.82;101057.94;4826866;29;20058;-64
2022/10/17 08:16:32;;;;;;;0.87;0.87;;;;;;;16.41;70.30;101062.22;4827233;29;20047;-65
2022/10/17 08:19:01;;;;;;;6.43;2.95;;;;;;;16.54;70.73;101057.91;4841167;29;20316;-66
2022/10/17 08:21:31;;;;;;;1.70;1.38;;;;;;;16.64;70.58;101060.47;4845303;29;20386;-66
2022/10/17 08:24:01;;;;;;;1.58;1.17;;;;;;;16.72;70.60;101058.72;4845601;29;20077;-66
2022/10/17 08:26:30;;;;;;;1.58;1.48;;;;;;;16.84;70.09;101056.97;4845292;29;20046;-66
2022/10/17 08:28:59;;;;;;;1.67;1.58;;;;;;;16.90;69.17;101062.94;4845067;29;20046;-66
2022/10/17 08:31:27;;;;;;;0.57;0.57;;;;;;;16.98;68.77;101061.22;4842360;29;20073;-66
2022/10/17 08:33:56;;;;;;;1.10;0.93;;;;;;;17.10;68.35;101061.16;4826625;29;20050;-67
2022/10/17 08:36:24;;;;;;;1.30;0.95;;;;;;;17.18;68.38;101063.69;4826977;29;20094;-66
2022/10/17 08:38:54;;;;;;;2.13;1.80;;;;;;;17.37;69.03;101063.56;4826605;29;20042;-67
2022/10/17 08:41:44;;;;;;;2.70;2.00;;;;;;;17.46;68.15;101069.53;4826895;29;20095;-67
2022/10/17 08:44:24;;;;;;;1.08;0.98;;;;;;;17.55;67.35;101069.50;4827320;29;20057;-67
2022/10/17 08:46:57;;;;;;;2.75;1.85;;;;;;;17.63;66.72;101067.72;4834513;29;20050;-67
2022/10/17 08:49:36;;;;;;;1.45;1.10;;;;;;;17.71;65.78;101065.94;4836052;29;20106;-67
2022/10/17 08:52:11;;;;;;;1.73;1.30;;;;;;;17.79;65.46;101065.00;4834479;29;20502;-66
2022/10/17 08:54:44;;;;;;;1.30;0.93;;;;;;;17.91;64.75;101062.34;4837265;29;20094;-67
2022/10/17 08:57:15;;;;;;;1.05;0.95;;;;;;;18.01;64.15;101066.56;4848436;29;20493;-66
2022/10/17 08:59:44;;;;;;;4.22;1.42;;;;;;;18.11;63.96;101062.16;4844913;29;20061;-67
2022/10/17 09:02:31;;;;;;;;;;;;;;;18.28;64.42;101065.44;4844959;29;20038;-66
2022/10/17 09:05:25;;;;;;;1.02;0.90;;;;;;;18.45;63.99;101058.34;4839463;29;19924;-66
2022/10/17 09:08:03;;;;;;;0.82;0.82;;;;;;;18.54;63.45;101053.13;4844568;29;20042;-67
2022/10/17 09:10:49;;;;;;;6.88;1.50;;;;;;;18.70;62.46;101059.84;4844698;29;20046;-67
2022/10/17 09:13:29;;;;;;;1.17;0.82;;;;;;;18.80;61.19;101059.72;4844245;29;20054;-67
2022/10/17 09:16:24;;;;;;;1.75;0.95;;;;;;;18.93;60.78;101063.88;4844883;29;20126;-66
2022/10/17 09:19:01;;;;;;;1.48;1.08;;;;;;;19.13;59.04;101054.09;4842945;29;20050;-67
2022/10/17 09:21:44;;;;;;;0.70;0.70;;;;;;;19.24;58.07;101062.59;4844818;29;20434;-67
2022/10/17 09:24:18;;;;;;;1.00;0.98;;;;;;;19.39;56.43;101057.22;4844772;29;20050;-68
2022/10/17 09:26:48;;;;;;;0.73;0.68;;;;;;;19.46;54.67;101053.66;4842996;29;20396;-66
2022/10/17 09:29:21;;;;;;;0.70;0.70;;;;;;;19.65;53.36;101049.91;4844169;29;20066;-67
2022/10/17 09:32:00;;;;;;;1.10;1.00;;;;;;;19.75;53.38;101050.59;4844298;29;20084;-67
2022/10/17 09:34:31;;;;;;;2.72;0.85;;;;;;;19.83;53.01;101054.81;4844048;29;20054;-67
2022/10/17 09:37:02;;;;;;;2.33;1.20;;;;;;;19.92;52.96;101061.56;4843996;29;20054;-67
2022/10/17 09:39:31;;;;;;;1.38;1.27;;;;;;;20.00;52.47;101052.78;4843914;29;20077;-67
2022/10/17 09:42:03;;;;;;;3.35;1.23;;;;;;;20.10;51.83;101053.47;4843894;29;20133;-67
2022/10/17 09:44:34;;;;;;;0.80;0.80;;;;;;;20.22;51.39;101047.22;4843804;29;20062;-67
2022/10/17 09:47:20;;;;;;;0.50;0.50;;;;;;;20.36;50.05;101060.81;4843695;29;20056;-68
2022/10/17 09:49:50;;;;;;;0.95;0.80;;;;;;;20.46;50.00;101052.84;4849283;29;20078;-66
2022/10/17 09:52:22;;;;;;;3.30;1.75;;;;;;;20.55;49.26;101055.25;4862107;29;20136;-67
2022/10/17 09:54:53;;;;;;;0.88;0.80;;;;;;;20.63;49.21;101058.56;4862036;29;20500;-67
2022/10/17 09:57:24;;;;;;;2.53;1.20;;;;;;;20.76;48.55;101055.69;4862034;29;20064;-69
2022/10/17 09:59:59;;;;;;;1.88;1.75;;;;;;;20.79;48.17;101053.91;4862305;29;20404;-67
2022/10/17 10:02:30;;;;;;;2.03;1.55;;;;;;;20.84;48.36;101049.47;4862076;29;20407;-68
2022/10/17 10:05:03;;;;;;;1.00;0.90;;;;;;;20.98;48.14;101052.63;4858739;29;20045;-68
2022/10/17 10:07:37;;;;;;;0.60;0.60;;;;;;;20.99;48.19;101056.09;4843173;29;20133;-68
2022/10/17 10:10:23;;;;;;;0.68;0.68;;;;;;;20.98;48.27;101037.06;4842141;29;20054;-67
2022/10/17 10:13:06;;;;;;;0.65;0.65;;;;;;;21.17;48.08;101043.59;4843118;29;20497;-67
2022/10/17 10:15:39;;;;;;;1.40;1.00;;;;;;;21.24;47.70;101044.28;4843647;29;20110;-67
2022/10/17 10:18:30;;;;;;;0.70;0.70;;;;;;;21.15;47.36;101050.56;4843431;29;20057;-68
2022/10/17 10:21:12;;;;;;;0.50;0.50;;;;;;;21.22;47.40;101046.94;4843262;29;20098;-68
2022/10/17 10:23:43;;;;;;;2.47;1.25;;;;;;;21.19;47.22;101041.81;4843507;29;20073;-67
2022/10/17 10:26:24;;;;;;;1.20;0.82;;;;;;;21.21;47.32;101040.03;4842265;29;20381;-67
2022/10/17 10:28:57;;;;;;;1.45;1.13;;;;;;;21.32;47.26;101040.66;4835054;29;20047;-67
2022/10/17 10:31:30;;;;;;;1.95;1.45;;;;;;;21.43;47.07;101036.97;4833032;29;20053;-67
2022/10/17 10:34:03;;;;;;;0.77;0.70;;;;;;;21.50;46.88;101041.13;4840747;29;20050;-68
2022/10/17 10:36:45;;;;;;;2.38;0.98;;;;;;;21.66;46.58;101038.13;4842473;29;20054;-69
2022/10/17 10:39:29;;;;;;;0.73;0.73;;;;;;;21.74;45.91;101041.34;4843236;29;20564;-67
2022/10/17 10:41:58;;;;;;;0.90;0.90;;;;;;;21.75;45.43;101032.69;4842994;29;20513;-65
2022/10/17 10:44:32;;;;;;;0.43;0.43;;;;;;;21.85;45.03;101030.75;4828670;29;20046;-66
2022/10/17 10:47:14;;;;;;;1.70;1.27;;;;;;;21.92;45.14;101025.34;4824804;29;20058;-67
2022/10/17 10:49:43;;;;;;;1.08;0.95;;;;;;;21.99;45.24;101020.84;4824634;29;20058;-68
2022/10/17 10:52:14;;;;;;;;;;;;;;;21.97;44.79;101020.03;4825421;29;20056;-68
2022/10/17 10:54:51;;;;;;;4.35;1.10;;;;;;;22.01;44.87;101022.50;4824766;29;19925;-69
2022/10/17 10:57:23;;;;;;;0.73;0.73;;;;;;;21.97;44.37;101022.63;4824719;29;20055;-67
2022/10/17 11:00:00;;;;;;;0.88;0.88;;;;;;;22.10;44.55;101024.00;4824978;29;20073;-67
2022/10/17 11:02:36;;;;;;;2.28;1.40;;;;;;;22.20;44.37;101022.00;4824867;29;20054;-68
2022/10/17 11:05:14;;;;;;;1.20;0.60;;;;;;;22.14;43.61;101020.44;4824580;29;20054;-68
2022/10/17 11:07:52;;;;;;;1.33;0.90;;;;;;;22.15;43.62;101019.53;4824873;29;20050;-67
2022/10/17 11:10:26;;;;;;;2.55;1.25;;;;;;;22.17;43.67;101017.75;4824886;29;20054;-68
2022/10/17 11:13:03;;;;;;;0.77;0.77;;;;;;;22.24;43.49;101016.72;4824317;29;20062;-69
2022/10/17 11:15:38;;;;;;;0.50;0.50;;;;;;;22.34;43.28;101018.13;4826017;29;20058;-69
2022/10/17 11:18:12;;;;;;;1.23;1.05;;;;;;;22.44;42.94;101017.00;4828320;29;20065;-68
2022/10/17 11:20:51;;;;;;;0.68;0.65;;;;;;;22.52;42.99;101019.38;4828350;29;20054;-67
2022/10/17 11:23:23;;;;;;;;;;;;;;;22.55;42.73;101017.56;4828921;29;20050;-67
2022/10/17 11:25:54;;;;;;;0.70;0.70;;;;;;;22.61;42.92;101013.94;4833199;29;20029;-69
2022/10/17 11:28:25;;;;;;;0.98;0.93;;;;;;;22.54;43.01;101005.44;4844213;29;20054;-69
2022/10/17 11:31:00;;;;;;;1.33;1.23;;;;;;;22.51;42.97;101009.84;4838399;29;20054;-68
2022/10/17 11:33:48;;;;;;;0.82;0.82;;;;;;;22.63;42.97;101010.41;4826593;29;20078;-67
2022/10/17 11:36:21;;;;;;;0.52;0.52;;;;;;;22.58;42.71;101016.59;4827991;29;20073;-67
2022/10/17 11:38:55;;;;;;;1.33;1.00;;;;;;;22.66;42.51;101001.66;4828254;29;20485;-68
2022/10/17 11:41:30;;;;;;;1.05;0.88;;;;;;;22.86;42.37;101006.28;4827900;29;20054;-66
2022/10/17 11:44:05;;;;;;;0.63;0.63;;;;;;;22.96;42.11;101012.94;4833709;29;20496;-68
2022/10/17 11:46:37;;;;;;;11.43;1.60;;;;;;;22.98;42.07;100995.50;4846122;29;20050;-69
2022/10/17 11:49:13;;;;;;;0.85;0.82;;;;;;;22.97;41.93;101005.06;4846186;29;20397;-68
2022/10/17 11:51:51;;;;;;;0.57;0.57;;;;;;;22.99;42.25;101002.38;4845654;29;20104;-69
2022/10/17 11:54:35;;;;;;;1.17;0.75;;;;;;;22.98;42.23;101005.91;4837713;29;20046;-69
2022/10/17 11:57:18;;;;;;;1.73;1.52;;;;;;;22.95;42.06;101008.59;4837466;29;20084;-67